Bookmark and Share
Track history (hours):
 

M V Jalma Topic

Last reported at 2014-Apr-16 07:23 UTC. Time now 2014-Apr-16 07:43 UTC.
Position N 54°41' E 020°12'.

Length 183 m; draft 9.2 m.

Type: Cargo ship. MMSI: 636012871.

NotesDate/timePositionNaut miles runAvg speedWind from/ knotsBaromVisibWave heightAir tempDewpointWater temp
2014-Apr-16 07:23N 54°41' E 020°12'0 0.0
2014-Apr-16 04:20N 54°41' E 020°12'0 0.0
2014-Apr-16 02:32N 54°41' E 020°12'0 0.0
2014-Apr-16 01:26N 54°41' E 020°12'0 0.0
2014-Apr-16 00:14N 54°41' E 020°12'0 0.0
2014-Apr-15 22:17N 54°41' E 020°12'0 0.0
2014-Apr-15 21:26N 54°41' E 020°12'0 0.0
2014-Apr-15 20:26N 54°41' E 020°12'0 0.0
2014-Apr-15 18:17N 54°41' E 020°12'0 0.0
2014-Apr-15 15:32N 54°41' E 020°12'0 0.0
2014-Apr-15 14:29N 54°41' E 020°12'0 0.0
2014-Apr-15 03:29N 54°41' E 020°12'0 0.0
2014-Apr-15 02:32N 54°41' E 020°12'6 0.2
2014-Apr-13 14:12N 54°39' E 020°03'6 5.6
2014-Apr-13 13:07N 54°39' E 019°53'3 5.8
2014-Apr-13 12:33N 54°40' E 019°48'2 1.7
2014-Apr-13 11:25N 54°39' E 019°46'0 0.0
2014-Apr-13 10:31N 54°39' E 019°46'0 0.0
2014-Apr-13 09:19N 54°39' E 019°46'0 0.0
2014-Apr-13 08:31N 54°39' E 019°46'0 0.1
2014-Apr-13 07:31N 54°39' E 019°46'0 0.0
2014-Apr-13 06:31N 54°39' E 019°46'0 0.0
2014-Apr-13 05:31N 54°39' E 019°46'0 0.1
2014-Apr-13 04:28N 54°39' E 019°46'0 0.0
2014-Apr-13 03:25N 54°39' E 019°46'0 0.0
2014-Apr-13 02:31N 54°39' E 019°46'0 0.0
2014-Apr-13 01:31N 54°39' E 019°46'0 0.0
2014-Apr-13 00:31N 54°39' E 019°46'0 0.0
2014-Apr-12 23:31N 54°39' E 019°46'0 0.0
2014-Apr-12 22:25N 54°39' E 019°46'0 0.1
2014-Apr-12 21:31N 54°39' E 019°46'0 0.0
2014-Apr-12 20:28N 54°39' E 019°46'0 0.0
2014-Apr-12 19:31N 54°39' E 019°45'0 0.1
2014-Apr-12 18:31N 54°39' E 019°45'0 0.0
2014-Apr-12 17:28N 54°39' E 019°45'0 0.1
2014-Apr-12 16:22N 54°39' E 019°45'0 0.0
2014-Apr-12 15:31N 54°39' E 019°45'0 0.1
2014-Apr-12 14:28N 54°39' E 019°45'0 0.1
2014-Apr-12 13:31N 54°39' E 019°46'0 0.0
2014-Apr-12 12:31N 54°39' E 019°46'0 0.0
2014-Apr-12 11:31N 54°39' E 019°46'0 0.1
2014-Apr-12 10:28N 54°39' E 019°46'0 0.0
2014-Apr-12 09:31N 54°39' E 019°46'0 0.0
2014-Apr-12 08:28N 54°39' E 019°46'0 0.0
2014-Apr-12 07:28N 54°39' E 019°46'0 0.0
2014-Apr-12 06:28N 54°39' E 019°46'0 0.1
2014-Apr-12 05:22N 54°39' E 019°46'0 0.0
2014-Apr-12 04:31N 54°39' E 019°46'0 0.0
2014-Apr-12 03:31N 54°39' E 019°46'0 0.0
2014-Apr-12 02:31N 54°39' E 019°45'0 0.0
2014-Apr-12 01:31N 54°39' E 019°46'0 0.0
2014-Apr-12 00:16N 54°39' E 019°46'0 0.0
2014-Apr-11 23:31N 54°39' E 019°46'0 0.0
2014-Apr-11 22:31N 54°39' E 019°46'0 0.0
2014-Apr-11 21:31N 54°39' E 019°46'0 0.0
2014-Apr-11 18:10N 54°39' E 019°45'0 0.0
2014-Apr-11 17:25N 54°39' E 019°45'0 0.0
2014-Apr-11 16:31N 54°39' E 019°45'0 0.0
2014-Apr-11 15:25N 54°39' E 019°45'0 0.0
2014-Apr-11 14:28N 54°39' E 019°45'0 0.1
2014-Apr-11 13:25N 54°39' E 019°46'0 0.0
2014-Apr-11 12:25N 54°39' E 019°46'0 0.0
2014-Apr-11 11:28N 54°39' E 019°46'0 0.0
2014-Apr-11 10:31N 54°39' E 019°46'0 0.0
2014-Apr-11 09:31N 54°39' E 019°46'0 0.0
2014-Apr-11 08:22N 54°39' E 019°45'0 0.1
2014-Apr-11 07:31N 54°39' E 019°45'0 0.0
2014-Apr-11 06:28N 54°39' E 019°45'0 0.1
2014-Apr-11 05:28N 54°39' E 019°45'0 0.0
2014-Apr-11 04:10N 54°39' E 019°45'0 0.0
2014-Apr-11 03:31N 54°39' E 019°45'0 0.0
2014-Apr-11 02:04N 54°39' E 019°45'0 0.0
2014-Apr-11 01:31N 54°39' E 019°45'0 0.0
2014-Apr-11 00:28N 54°39' E 019°45'0 0.0
2014-Apr-10 23:31N 54°39' E 019°45'0 0.0
2014-Apr-10 22:31N 54°39' E 019°45'0 0.0
2014-Apr-10 21:31N 54°39' E 019°45'0 0.0
2014-Apr-10 20:31N 54°39' E 019°45'0 0.1
2014-Apr-10 19:31N 54°39' E 019°45'0 0.1
2014-Apr-10 18:22N 54°39' E 019°45'0 0.0
2014-Apr-10 17:31N 54°39' E 019°45'0 0.0
2014-Apr-10 16:31N 54°39' E 019°45'0 0.0
2014-Apr-10 15:31N 54°39' E 019°45'0 0.0
2014-Apr-10 14:28N 54°39' E 019°45'0 0.0
2014-Apr-10 13:28N 54°39' E 019°45'0 0.0
2014-Apr-10 12:31N 54°39' E 019°45'0 0.0
2014-Apr-10 11:22N 54°39' E 019°45'0 0.0
2014-Apr-10 10:31N 54°39' E 019°45'0 0.2
2014-Apr-10 09:22N 54°39' E 019°45'0 0.1
2014-Apr-10 08:25N 54°39' E 019°45'0 0.1
2014-Apr-10 07:31N 54°39' E 019°45'0 0.1
2014-Apr-10 06:31N 54°39' E 019°45'1 1.3
2014-Apr-10 05:33N 54°40' E 019°44'1010.4
2014-Apr-10 04:34N 54°46' E 019°30'1211.6
2014-Apr-10 03:33N 54°51' E 019°12'1211.6
2014-Apr-10 02:34N 54°54' E 018°52'1211.5
2014-Apr-10 01:33N 54°55' E 018°32'1211.9
2014-Apr-10 00:33N 54°55' E 018°12'1211.7
2014-Apr-09 23:33N 54°54' E 017°51'12011.7
2014-Apr-09 13:18N 54°36' E 014°25'912.0
2014-Apr-09 12:33N 54°38' E 014°10'1212.3
2014-Apr-09 11:33N 54°41' E 013°50'1212.3
2014-Apr-09 10:33N 54°45' E 013°29'1312.6
2014-Apr-09 09:33N 54°45' E 013°07'1212.3
2014-Apr-09 08:33N 54°45' E 012°46'1211.7
2014-Apr-09 07:33N 54°39' E 012°28'1111.3
2014-Apr-09 06:33N 54°30' E 012°16'1110.6
2014-Apr-09 05:33N 54°25' E 012°01'1212.0
2014-Apr-09 04:33N 54°27' E 011°40'1212.4
2014-Apr-09 03:33N 54°32' E 011°21'2211.1
2014-Apr-09 01:32N 54°41' E 010°46'12411.2
2014-Apr-08 14:26N 56°41' E 011°44'910.1
2014-Apr-08 13:33N 56°50' E 011°49'1312.5
2014-Apr-08 12:31N 57°02' E 011°41'1212.0
2014-Apr-08 11:33N 57°13' E 011°34'1211.6
2014-Apr-08 10:34N 57°24' E 011°26'1211.6
2014-Apr-08 09:34N 57°33' E 011°13'1111.0
2014-Apr-08 08:34N 57°40' E 010°58'1211.5
2014-Apr-08 07:33N 57°48' E 010°41'1313.0
2014-Apr-08 06:33N 57°47' E 010°17'1212.2
2014-Apr-08 05:33N 57°47' E 009°54'44512.3
2014-Apr-06 17:33N 51°43' E 002°31'1414.0
2014-Apr-06 16:33N 51°32' E 002°17'1413.5
2014-Apr-06 15:33N 51°19' E 002°09'1313.0
2014-Apr-06 14:33N 51°10' E 001°54'1313.0
2014-Apr-06 13:33N 51°02' E 001°38'1212.0
2014-Apr-06 12:33N 50°52' E 001°27'1211.6
2014-Apr-06 11:32N 50°41' E 001°20'1711.8
2014-Apr-06 10:06N 50°30' E 001°00'711.9
2014-Apr-06 09:31N 50°28' E 000°50'1211.8
2014-Apr-06 08:29N 50°24' E 000°32'  

Dump ship's entire track history

sailing weather and tide predictions

M V Jalma Topic — A8IQ6 — position and weather